Weather at Đảo Phan Vinh (Pearson Reef B) Helipad

Public forecast

Using degrees Celsius for public forecast. Weather courtesy of forecast.io.

Closest aviation weather report (METAR) to Đảo Phan Vinh (Pearson Reef B) Helipad

Closest report is Puerto Princesa Airport, 306.1 nm (566.9 km) E. Retrieved 2022/07/03 11:00 UTC (18 minutes ago):

RPVP 031100Z 15004KT 9999 FEW019 SCT250 29/26 Q1008 RMK A2977

Closest aviation forecast (TAF) to Đảo Phan Vinh (Pearson Reef B) Helipad

Closest forecast is Puerto Princesa Airport, 306.1 nm (566.9 km) E. Retrieved 2022/07/03 06:02 UTC (5 hours ago):

TAF RPVP 030500Z 0306/0406 16005KT 9999 FEW019 SCT080 TEMPO 0309/0315 21008KT TEMPO 0318/0324 27004KT FEW019 BKN080